Terminal Aerodrome Forecast
Issued by NWS

Home | Current Version | Previous Version | Text Only | Print | Product List | Glossary On
Versions: 1 2 3 4 5 6 7 8 9 10 11 12
000
FTUS43 KSGF 051700
TAFJLN
TAF
KJLN 051721Z 0518/0618 18013G20KT P6SM SCT050 BKN250
     FM051900 15008KT P6SM VCTS BKN050CB
     FM060000 16012KT P6SM FEW050 BKN100
     FM060500 15010KT P6SM BKN100 WS020/17040KT PROB30 0608/0612 3SM
      TSRA OVC030CB
     FM061200 16015KT 3SM TSRA OVC030CB=

USA.gov is the U.S. government's official web portal to all federal, state and local government web resources and services.